Time;durP1;ratioP1;P1;durP2;ratioP2;P2;SDS_P1;SDS_P2;PMS_P1;PMS_P2;Temp;Humidity;BMP_temperature;BMP_pressure;BME280_temperature;BME280_humidity;BME280_pressure;Samples;Min_cycle;Max_cycle;Signal;HPM_P1;HPM_P2
2021/07/01 00:02:03;;;;;;;26.90;14.77;;;;;;;;;;3584586;39;20399;-80
2021/07/01 00:04:29;;;;;;;21.27;16.00;;;;;;;;;;3589667;39;21244;-80
2021/07/01 00:06:55;;;;;;;22.33;15.17;;;;;;;;;;3588754;39;20440;-81
2021/07/01 00:09:23;;;;;;;24.93;14.03;;;;;;;;;;3594449;39;20435;-80
2021/07/01 00:11:51;;;;;;;25.13;16.43;;;;;;;;;;3596719;39;20424;-81
2021/07/01 00:14:19;;;;;;;22.27;15.30;;;;;;;;;;3590053;39;20434;-80
2021/07/01 00:16:45;;;;;;;21.57;15.27;;;;;;;;;;3587859;39;20759;-81
2021/07/01 00:19:12;;;;;;;21.83;15.07;;;;;;;;;;3587862;39;20418;-81
2021/07/01 00:21:44;;;;;;;23.30;15.67;;;;;;;;;;3605555;39;20445;-81
2021/07/01 00:24:10;;;;;;;18.77;15.03;;;;;;;;;;3596480;39;20422;-80
2021/07/01 00:26:38;;;;;;;25.10;15.73;;;;;;;;;;3586809;39;21417;-80
2021/07/01 00:29:04;;;;;;;26.57;17.17;;;;;;;;;;3587274;39;20418;-80
2021/07/01 00:31:32;;;;;;;22.47;15.40;;;;;;;;;;3596587;39;20400;-81
2021/07/01 00:33:58;;;;;;;28.20;17.13;;;;;;;;;;3596811;39;22897;-80
2021/07/01 00:36:24;;;;;;;24.10;18.10;;;;;;;;;;3585420;39;20586;-81
2021/07/01 00:38:51;;;;;;;23.30;15.17;;;;;;;;;;3594158;39;20478;-80
2021/07/01 00:41:17;;;;;;;28.90;16.60;;;;;;;;;;3596446;39;21034;-80
2021/07/01 00:43:43;;;;;;;24.27;17.50;;;;;;;;;;3595447;39;20493;-81
2021/07/01 00:46:10;;;;;;;26.47;15.60;;;;;;;;;;3596383;39;20752;-81
2021/07/01 00:48:43;;;;;;;28.40;17.03;;;;;;;;;;3586872;39;20487;-81
2021/07/01 00:51:09;;;;;;;25.63;16.13;;;;;;;;;;3598761;39;20366;-81
2021/07/01 00:53:35;;;;;;;25.23;17.57;;;;;;;;;;3604752;39;20403;-80
2021/07/01 00:56:03;;;;;;;23.90;15.57;;;;;;;;;;3598858;39;20400;-81
2021/07/01 00:58:29;;;;;;;28.10;17.77;;;;;;;;;;3609257;39;20415;-81
2021/07/01 01:01:14;;;;;;;24.93;14.53;;;;;;;;;;3597275;39;20429;-84
2021/07/01 01:06:09;;;;;;;27.60;16.30;;;;;;;;;;3591254;39;20433;-73
2021/07/01 01:08:35;;;;;;;23.73;17.10;;;;;;;;;;3595872;39;20403;-74
2021/07/01 01:11:02;;;;;;;24.70;17.10;;;;;;;;;;3586837;39;20402;-73
2021/07/01 01:13:28;;;;;;;21.53;15.67;;;;;;;;;;3589297;39;20426;-73
2021/07/01 01:15:58;;;;;;;25.20;15.23;;;;;;;;;;3587969;39;20437;-73
2021/07/01 01:18:24;;;;;;;19.63;14.63;;;;;;;;;;3597153;39;20493;-73
2021/07/01 01:20:51;;;;;;;24.40;15.50;;;;;;;;;;3595155;39;20811;-74
2021/07/01 01:23:17;;;;;;;25.03;16.30;;;;;;;;;;3597611;39;20454;-74
2021/07/01 01:25:44;;;;;;;26.60;16.10;;;;;;;;;;3596939;39;20538;-74
2021/07/01 01:28:10;;;;;;;20.80;15.80;;;;;;;;;;3587982;39;20834;-74
2021/07/01 01:30:38;;;;;;;34.23;17.90;;;;;;;;;;3597929;39;20458;-75
2021/07/01 01:33:06;;;;;;;29.90;16.70;;;;;;;;;;3597370;39;20427;-74
2021/07/01 01:35:32;;;;;;;24.23;15.97;;;;;;;;;;3595119;39;20440;-74
2021/07/01 01:37:58;;;;;;;26.47;17.33;;;;;;;;;;3584431;39;20410;-74
2021/07/01 01:40:24;;;;;;;21.87;15.90;;;;;;;;;;3588511;39;20771;-74
2021/07/01 01:42:50;;;;;;;20.50;14.70;;;;;;;;;;3587027;39;20512;-74
2021/07/01 01:45:16;;;;;;;24.10;14.80;;;;;;;;;;3587498;39;20395;-74
2021/07/01 01:47:49;;;;;;;18.33;14.40;;;;;;;;;;3588483;39;20414;-74
2021/07/01 01:50:19;;;;;;;22.73;14.40;;;;;;;;;;3598051;39;20537;-74
2021/07/01 01:52:46;;;;;;;23.03;14.90;;;;;;;;;;3587387;39;20419;-74
2021/07/01 01:55:13;;;;;;;19.63;14.00;;;;;;;;;;3578275;39;20403;-74
2021/07/01 01:57:44;;;;;;;16.83;13.10;;;;;;;;;;3588111;39;20461;-74
2021/07/01 02:00:11;;;;;;;21.50;14.43;;;;;;;;;;3578950;39;20814;-74
2021/07/01 02:02:37;;;;;;;19.07;13.63;;;;;;;;;;3586404;39;20415;-74
2021/07/01 02:05:04;;;;;;;22.13;14.77;;;;;;;;;;3576192;39;21046;-74
2021/07/01 02:07:30;;;;;;;21.87;14.63;;;;;;;;;;3586488;39;20424;-74
2021/07/01 02:09:57;;;;;;;17.13;14.40;;;;;;;;;;3571303;39;20447;-74
2021/07/01 02:12:24;;;;;;;24.60;13.53;;;;;;;;;;3586710;39;20463;-74
2021/07/01 02:14:50;;;;;;;21.30;14.43;;;;;;;;;;3587296;39;20486;-74
2021/07/01 02:17:17;;;;;;;28.60;14.30;;;;;;;;;;3587511;39;20459;-74
2021/07/01 02:19:43;;;;;;;25.23;16.33;;;;;;;;;;3586258;39;20690;-74
2021/07/01 02:22:09;;;;;;;27.50;18.50;;;;;;;;;;3587438;39;20400;-74
2021/07/01 02:24:35;;;;;;;34.80;20.07;;;;;;;;;;3588705;39;20815;-74
2021/07/01 02:27:01;;;;;;;24.20;19.13;;;;;;;;;;3588072;39;20814;-74
2021/07/01 02:29:28;;;;;;;26.87;19.30;;;;;;;;;;3586098;39;20457;-75
2021/07/01 02:31:54;;;;;;;30.83;21.30;;;;;;;;;;3586558;39;20469;-74
2021/07/01 02:34:21;;;;;;;35.93;21.53;;;;;;;;;;3577785;39;20432;-74
2021/07/01 02:36:47;;;;;;;29.30;20.03;;;;;;;;;;3577117;39;20813;-75
2021/07/01 02:39:13;;;;;;;33.37;21.43;;;;;;;;;;3579256;39;20412;-75
2021/07/01 02:41:39;;;;;;;25.77;18.80;;;;;;;;;;3585570;39;20406;-74
2021/07/01 02:44:05;;;;;;;27.97;20.20;;;;;;;;;;3586415;39;20761;-74
2021/07/01 02:46:32;;;;;;;26.23;19.17;;;;;;;;;;3579094;39;20412;-74
2021/07/01 02:48:58;;;;;;;26.60;21.10;;;;;;;;;;3587911;39;20820;-74
2021/07/01 02:51:24;;;;;;;31.70;20.63;;;;;;;;;;3588077;39;20419;-74
2021/07/01 02:53:50;;;;;;;28.27;20.03;;;;;;;;;;3578019;39;20572;-74
2021/07/01 02:56:18;;;;;;;26.77;19.20;;;;;;;;;;3588294;39;20757;-74
2021/07/01 02:58:44;;;;;;;27.83;22.57;;;;;;;;;;3577233;39;20400;-74
2021/07/01 03:01:10;;;;;;;30.10;21.60;;;;;;;;;;3579912;39;21127;-75
2021/07/01 03:03:36;;;;;;;28.00;19.90;;;;;;;;;;3583447;39;21147;-74
2021/07/01 03:06:02;;;;;;;32.00;21.87;;;;;;;;;;3577881;39;20460;-74
2021/07/01 03:08:28;;;;;;;27.13;21.23;;;;;;;;;;3577630;39;20422;-75
2021/07/01 03:10:54;;;;;;;29.37;20.83;;;;;;;;;;3577583;39;20419;-74
2021/07/01 03:13:20;;;;;;;37.27;23.37;;;;;;;;;;3584741;39;20411;-74
2021/07/01 03:15:46;;;;;;;32.27;20.37;;;;;;;;;;3577829;39;20817;-74
2021/07/01 03:18:12;;;;;;;30.30;20.47;;;;;;;;;;3577261;39;20443;-74
2021/07/01 03:20:39;;;;;;;32.33;21.73;;;;;;;;;;3576399;39;20734;-74
2021/07/01 03:23:05;;;;;;;25.30;18.30;;;;;;;;;;3577874;39;20399;-74
2021/07/01 03:25:31;;;;;;;35.03;20.27;;;;;;;;;;3586487;39;20411;-74
2021/07/01 03:27:57;;;;;;;31.57;19.20;;;;;;;;;;3576635;39;20427;-74
2021/07/01 03:30:23;;;;;;;30.93;20.57;;;;;;;;;;3583995;39;21456;-74
2021/07/01 03:32:50;;;;;;;28.10;19.20;;;;;;;;;;3588372;39;21752;-74
2021/07/01 03:35:16;;;;;;;28.37;20.17;;;;;;;;;;3586561;39;20443;-74
2021/07/01 03:37:43;;;;;;;32.90;21.10;;;;;;;;;;3577715;39;20390;-74
2021/07/01 03:40:10;;;;;;;30.43;20.07;;;;;;;;;;3577476;39;21379;-74
2021/07/01 03:42:36;;;;;;;33.00;19.57;;;;;;;;;;3589392;39;21140;-74
2021/07/01 03:45:04;;;;;;;27.30;19.43;;;;;;;;;;3568672;39;20431;-74
2021/07/01 03:47:30;;;;;;;24.80;19.20;;;;;;;;;;3584864;39;20497;-74
2021/07/01 03:49:56;;;;;;;29.77;19.10;;;;;;;;;;3577328;39;20416;-74
2021/07/01 03:52:22;;;;;;;25.77;18.23;;;;;;;;;;3579210;39;20426;-74
2021/07/01 03:54:48;;;;;;;28.57;18.87;;;;;;;;;;3569605;39;20447;-74
2021/07/01 03:57:14;;;;;;;24.23;18.50;;;;;;;;;;3566931;39;21348;-74
2021/07/01 03:59:40;;;;;;;20.53;16.33;;;;;;;;;;3579996;39;20497;-74
2021/07/01 04:02:07;;;;;;;21.87;15.70;;;;;;;;;;3585143;39;20431;-74
2021/07/01 04:04:33;;;;;;;23.47;16.90;;;;;;;;;;3587094;39;20431;-74
2021/07/01 04:06:59;;;;;;;31.03;19.00;;;;;;;;;;3584840;39;20415;-74
2021/07/01 04:09:25;;;;;;;26.80;16.73;;;;;;;;;;3585067;39;20430;-74
2021/07/01 04:11:51;;;;;;;21.23;16.27;;;;;;;;;;3578068;39;20402;-74
2021/07/01 04:14:18;;;;;;;24.07;16.90;;;;;;;;;;3576473;39;20396;-74
2021/07/01 04:16:45;;;;;;;25.70;15.60;;;;;;;;;;3586500;39;21555;-74
2021/07/01 04:19:12;;;;;;;19.37;14.57;;;;;;;;;;3576955;39;20450;-74
2021/07/01 04:21:38;;;;;;;22.80;16.20;;;;;;;;;;3575471;39;20399;-74
2021/07/01 04:24:05;;;;;;;19.00;15.00;;;;;;;;;;3576498;39;20375;-74
2021/07/01 04:26:31;;;;;;;20.27;13.93;;;;;;;;;;3576869;39;20496;-75
2021/07/01 04:28:57;;;;;;;26.17;13.93;;;;;;;;;;3581283;39;20434;-74
2021/07/01 04:31:24;;;;;;;21.60;13.23;;;;;;;;;;3579630;39;20473;-74
2021/07/01 04:33:51;;;;;;;23.23;15.83;;;;;;;;;;3578182;39;20404;-74
2021/07/01 04:36:17;;;;;;;22.83;14.13;;;;;;;;;;3579364;39;20776;-74
2021/07/01 04:38:54;;;;;;;22.33;13.67;;;;;;;;;;3579218;39;20423;-74
2021/07/01 04:41:20;;;;;;;24.23;14.97;;;;;;;;;;3586048;39;20399;-74
2021/07/01 04:43:47;;;;;;;20.13;11.80;;;;;;;;;;3577479;39;20423;-74
2021/07/01 04:46:13;;;;;;;29.77;15.33;;;;;;;;;;3579052;39;20454;-74
2021/07/01 04:48:40;;;;;;;24.30;15.93;;;;;;;;;;3589118;39;20454;-74
2021/07/01 04:51:07;;;;;;;21.33;14.50;;;;;;;;;;3581474;39;21020;-74
2021/07/01 04:53:33;;;;;;;22.83;13.50;;;;;;;;;;3578865;39;20760;-74
2021/07/01 04:55:59;;;;;;;26.80;14.10;;;;;;;;;;3577640;39;20450;-74
2021/07/01 04:58:25;;;;;;;21.73;13.83;;;;;;;;;;3586748;39;20531;-74
2021/07/01 05:00:51;;;;;;;18.50;13.40;;;;;;;;;;3588835;39;20391;-74
2021/07/01 05:03:17;;;;;;;13.83;11.33;;;;;;;;;;3579865;39;20452;-74
2021/07/01 05:05:43;;;;;;;19.60;11.53;;;;;;;;;;3577127;39;20549;-74
2021/07/01 05:08:09;;;;;;;16.50;9.30;;;;;;;;;;3570443;39;20386;-74
2021/07/01 05:10:35;;;;;;;13.40;9.80;;;;;;;;;;3587293;39;20383;-75
2021/07/01 05:13:01;;;;;;;14.30;9.40;;;;;;;;;;3587267;39;20415;-75
2021/07/01 05:15:28;;;;;;;13.13;8.90;;;;;;;;;;3587472;39;20420;-74
2021/07/01 05:17:54;;;;;;;13.87;8.90;;;;;;;;;;3588331;39;20501;-74
2021/07/01 05:20:20;;;;;;;13.03;9.50;;;;;;;;;;3578736;39;20451;-74
2021/07/01 05:22:46;;;;;;;11.60;9.07;;;;;;;;;;3586193;39;20400;-74
2021/07/01 05:25:13;;;;;;;16.43;9.60;;;;;;;;;;3580176;39;20466;-77
2021/07/01 05:27:39;;;;;;;12.33;9.03;;;;;;;;;;3577701;39;20430;-75
2021/07/01 05:30:05;;;;;;;12.40;9.60;;;;;;;;;;3585617;39;20448;-74
2021/07/01 05:32:31;;;;;;;15.53;9.37;;;;;;;;;;3579802;39;20909;-74
2021/07/01 05:34:57;;;;;;;11.37;9.07;;;;;;;;;;3572363;39;20882;-74
2021/07/01 05:37:23;;;;;;;12.43;9.70;;;;;;;;;;3589299;39;20400;-74
2021/07/01 05:39:49;;;;;;;13.20;11.20;;;;;;;;;;3583524;39;20465;-74
2021/07/01 05:42:15;;;;;;;18.50;12.33;;;;;;;;;;3583983;39;20408;-74
2021/07/01 05:44:41;;;;;;;17.67;13.23;;;;;;;;;;3592879;39;20403;-74
2021/07/01 05:47:08;;;;;;;16.57;12.43;;;;;;;;;;3588251;39;20489;-74
2021/07/01 05:49:34;;;;;;;21.53;13.20;;;;;;;;;;3589782;39;20415;-73
2021/07/01 05:52:03;;;;;;;24.37;17.20;;;;;;;;;;3592449;39;20405;-73
2021/07/01 05:54:34;;;;;;;26.00;17.30;;;;;;;;;;3592271;39;20444;-73
2021/07/01 05:57:01;;;;;;;26.00;18.53;;;;;;;;;;3590217;39;20452;-72
2021/07/01 05:59:27;;;;;;;32.43;23.00;;;;;;;;;;3579014;39;20389;-74
2021/07/01 06:01:53;;;;;;;27.63;20.57;;;;;;;;;;3589827;39;20447;-73
2021/07/01 06:04:20;;;;;;;32.07;19.80;;;;;;;;;;3590109;39;20435;-73
2021/07/01 06:06:49;;;;;;;29.93;21.23;;;;;;;;;;3590523;39;20455;-73
2021/07/01 06:09:15;;;;;;;29.93;23.13;;;;;;;;;;3590090;39;20759;-74
2021/07/01 06:11:42;;;;;;;32.93;21.90;;;;;;;;;;3581583;39;20839;-73
2021/07/01 06:14:08;;;;;;;27.97;21.10;;;;;;;;;;3580935;39;20835;-73
2021/07/01 06:16:35;;;;;;;24.50;18.30;;;;;;;;;;3591932;39;20370;-73
2021/07/01 06:19:03;;;;;;;26.43;19.30;;;;;;;;;;3582754;39;20827;-73
2021/07/01 06:21:30;;;;;;;27.67;16.00;;;;;;;;;;3580552;39;20387;-73
2021/07/01 06:23:59;;;;;;;18.73;15.10;;;;;;;;;;3582273;39;21025;-76
2021/07/01 06:26:27;;;;;;;26.17;13.70;;;;;;;;;;3580183;39;20414;-76
2021/07/01 06:28:54;;;;;;;19.47;11.30;;;;;;;;;;3583026;39;20449;-74
2021/07/01 06:31:20;;;;;;;21.13;13.30;;;;;;;;;;3590269;39;20756;-74
2021/07/01 06:33:47;;;;;;;19.10;10.27;;;;;;;;;;3590736;39;20403;-74
2021/07/01 06:36:14;;;;;;;16.63;9.80;;;;;;;;;;3588773;39;20407;-74
2021/07/01 06:38:46;;;;;;;11.80;9.20;;;;;;;;;;3589794;39;20568;-74
2021/07/01 06:41:14;;;;;;;11.47;7.67;;;;;;;;;;3588970;39;20493;-74
2021/07/01 06:43:42;;;;;;;15.17;8.53;;;;;;;;;;3591472;39;20407;-73
2021/07/01 06:46:09;;;;;;;12.57;9.00;;;;;;;;;;3590326;39;20411;-74
2021/07/01 06:48:36;;;;;;;16.00;9.83;;;;;;;;;;3579109;39;20530;-74
2021/07/01 06:51:03;;;;;;;14.00;9.43;;;;;;;;;;3581663;39;20395;-73
2021/07/01 06:53:30;;;;;;;23.50;12.87;;;;;;;;;;3562623;39;20545;-74
2021/07/01 06:55:56;;;;;;;16.07;14.30;;;;;;;;;;3580448;39;20735;-74
2021/07/01 06:58:22;;;;;;;28.83;16.30;;;;;;;;;;3591009;39;20832;-73
2021/07/01 07:00:49;;;;;;;19.53;17.00;;;;;;;;;;3571887;39;20434;-73
2021/07/01 07:03:17;;;;;;;26.47;16.37;;;;;;;;;;3587587;39;20400;-73
2021/07/01 07:05:51;;;;;;;22.70;15.83;;;;;;;;;;3586837;39;20431;-74
2021/07/01 07:08:18;;;;;;;27.43;16.67;;;;;;;;;;3589253;39;20363;-74
2021/07/01 07:10:45;;;;;;;16.07;12.90;;;;;;;;;;3580157;39;20971;-74
2021/07/01 07:13:12;;;;;;;22.07;14.83;;;;;;;;;;3581648;39;20424;-74
2021/07/01 07:15:38;;;;;;;22.17;12.07;;;;;;;;;;3570620;39;20418;-73
2021/07/01 07:18:14;;;;;;;17.17;10.70;;;;;;;;;;3589114;39;20388;-74
2021/07/01 07:20:42;;;;;;;14.73;10.00;;;;;;;;;;3589021;39;20477;-74
2021/07/01 07:23:09;;;;;;;35.37;13.60;;;;;;;;;;3589265;39;20441;-74
2021/07/01 07:25:39;;;;;;;19.73;12.83;;;;;;;;;;3590400;39;20411;-74
2021/07/01 07:28:07;;;;;;;27.10;13.57;;;;;;;;;;3589540;39;20913;-74
2021/07/01 07:31:04;;;;;;;16.17;12.37;;;;;;;;;;3589501;39;20392;-75
2021/07/01 07:33:56;;;;;;;15.33;12.47;;;;;;;;;;3573703;39;21221;-74
2021/07/01 07:36:43;;;;;;;16.77;12.93;;;;;;;;;;3547419;40;20430;-75
2021/07/01 07:42:33;;;;;;;20.50;13.10;;;;;;;;;;3548381;40;20705;-75
2021/07/01 07:44:59;;;;;;;22.03;14.50;;;;;;;;;;3552718;39;20422;-75
2021/07/01 07:47:28;;;;;;;16.73;12.90;;;;;;;;;;3569960;39;20431;-75
2021/07/01 07:49:54;;;;;;;21.63;13.43;;;;;;;;;;3582036;39;20484;-75
2021/07/01 07:52:21;;;;;;;26.07;13.30;;;;;;;;;;3588655;39;20400;-75
2021/07/01 07:54:48;;;;;;;21.33;12.90;;;;;;;;;;3589135;39;20416;-75
2021/07/01 07:57:14;;;;;;;20.37;12.63;;;;;;;;;;3588711;39;20856;-75
2021/07/01 07:59:43;;;;;;;18.03;12.70;;;;;;;;;;3589680;39;20407;-75
2021/07/01 08:02:16;;;;;;;15.37;10.90;;;;;;;;;;3582136;39;20419;-74
2021/07/01 08:04:42;;;;;;;20.47;11.80;;;;;;;;;;3591836;39;20521;-74
2021/07/01 08:07:09;;;;;;;27.90;15.80;;;;;;;;;;3589532;39;20423;-74
2021/07/01 08:09:35;;;;;;;19.57;14.87;;;;;;;;;;3572038;39;20396;-74
2021/07/01 08:12:01;;;;;;;19.53;13.10;;;;;;;;;;3590847;39;20395;-75
2021/07/01 08:14:27;;;;;;;27.63;18.17;;;;;;;;;;3591556;39;20430;-74
2021/07/01 08:16:54;;;;;;;28.77;17.80;;;;;;;;;;3580171;39;20434;-74
2021/07/01 08:19:20;;;;;;;25.80;18.20;;;;;;;;;;3580771;39;20424;-74
2021/07/01 08:21:49;;;;;;;28.10;17.60;;;;;;;;;;3582038;39;20400;-74
2021/07/01 08:24:17;;;;;;;25.80;18.20;;;;;;;;;;3580084;39;20378;-74
2021/07/01 08:26:44;;;;;;;23.00;16.53;;;;;;;;;;3580082;39;20423;-74
2021/07/01 08:29:11;;;;;;;25.03;18.57;;;;;;;;;;3578265;39;20404;-74
2021/07/01 08:31:37;;;;;;;24.23;17.53;;;;;;;;;;3578695;39;20732;-74
2021/07/01 08:34:07;;;;;;;29.83;19.27;;;;;;;;;;3578279;39;20476;-75
2021/07/01 08:36:35;;;;;;;27.63;18.10;;;;;;;;;;3571972;39;20406;-75
2021/07/01 08:39:02;;;;;;;32.17;18.37;;;;;;;;;;3580922;39;20796;-75
2021/07/01 08:41:29;;;;;;;28.43;18.17;;;;;;;;;;3591384;39;20921;-75
2021/07/01 08:43:55;;;;;;;25.07;17.80;;;;;;;;;;3588627;39;20426;-75
2021/07/01 08:46:24;;;;;;;24.63;17.70;;;;;;;;;;3578923;39;21942;-75
2021/07/01 08:49:02;;;;;;;30.57;17.50;;;;;;;;;;3580202;39;20388;-74
2021/07/01 08:51:39;;;;;;;22.80;16.73;;;;;;;;;;3589237;39;20419;-74
2021/07/01 08:54:25;;;;;;;24.23;18.23;;;;;;;;;;3580862;39;21380;-75
2021/07/01 08:56:53;;;;;;;28.77;18.70;;;;;;;;;;3580024;39;20463;-74
2021/07/01 08:59:20;;;;;;;32.67;19.63;;;;;;;;;;3580597;39;21007;-74
2021/07/01 09:01:48;;;;;;;29.67;18.07;;;;;;;;;;3589963;39;20501;-74
2021/07/01 09:04:15;;;;;;;32.30;18.17;;;;;;;;;;3586784;39;20475;-74
2021/07/01 09:06:41;;;;;;;24.37;17.63;;;;;;;;;;3588935;39;20415;-74
2021/07/01 09:09:11;;;;;;;28.60;17.73;;;;;;;;;;3581437;39;20458;-74
2021/07/01 09:11:39;;;;;;;24.00;16.40;;;;;;;;;;3588556;39;20408;-74
2021/07/01 09:14:10;;;;;;;23.87;16.97;;;;;;;;;;3591871;39;20411;-74
2021/07/01 09:16:36;;;;;;;31.30;18.40;;;;;;;;;;3591477;39;20402;-75
2021/07/01 09:19:03;;;;;;;22.70;18.50;;;;;;;;;;3591230;39;20412;-74
2021/07/01 09:21:29;;;;;;;29.53;19.27;;;;;;;;;;3587162;39;20754;-74
2021/07/01 09:23:58;;;;;;;26.07;17.97;;;;;;;;;;3583002;39;20399;-74
2021/07/01 09:26:26;;;;;;;23.70;17.50;;;;;;;;;;3581644;39;20418;-75
2021/07/01 09:28:54;;;;;;;25.13;19.10;;;;;;;;;;3589642;39;20448;-74
2021/07/01 09:31:21;;;;;;;29.03;18.63;;;;;;;;;;3592546;39;20492;-74
2021/07/01 09:33:48;;;;;;;26.97;18.07;;;;;;;;;;3592412;39;20436;-74
2021/07/01 09:36:15;;;;;;;25.93;17.83;;;;;;;;;;3582505;39;20443;-76
2021/07/01 09:38:42;;;;;;;23.10;17.70;;;;;;;;;;3590862;39;20439;-76
2021/07/01 09:41:09;;;;;;;24.77;19.93;;;;;;;;;;3581934;39;20431;-75
2021/07/01 09:43:37;;;;;;;24.40;18.47;;;;;;;;;;3580440;39;20411;-76
2021/07/01 09:46:03;;;;;;;20.27;16.70;;;;;;;;;;3583362;39;20838;-76
2021/07/01 09:48:34;;;;;;;24.33;17.63;;;;;;;;;;3593090;39;20495;-76
2021/07/01 09:51:03;;;;;;;23.37;17.37;;;;;;;;;;3590248;39;20444;-75
2021/07/01 09:53:31;;;;;;;23.40;17.30;;;;;;;;;;3591837;39;20410;-75
2021/07/01 09:56:03;;;;;;;25.40;19.07;;;;;;;;;;3580725;39;20432;-75
2021/07/01 09:58:31;;;;;;;26.13;19.30;;;;;;;;;;3581623;39;20528;-75
2021/07/01 10:00:57;;;;;;;23.23;17.00;;;;;;;;;;3586574;39;20415;-75
2021/07/01 10:03:24;;;;;;;27.50;18.67;;;;;;;;;;3581323;39;20443;-75
2021/07/01 10:05:50;;;;;;;25.87;18.43;;;;;;;;;;3581334;39;20420;-74
2021/07/01 10:08:16;;;;;;;24.40;16.83;;;;;;;;;;3582045;39;20411;-75
2021/07/01 10:10:43;;;;;;;24.10;18.60;;;;;;;;;;3578887;39;20415;-75
2021/07/01 10:13:10;;;;;;;26.67;18.10;;;;;;;;;;3571487;39;22476;-75
2021/07/01 10:15:37;;;;;;;23.23;19.27;;;;;;;;;;3591209;39;20379;-75
2021/07/01 10:18:10;;;;;;;24.03;16.83;;;;;;;;;;3583170;39;20400;-75
2021/07/01 10:20:41;;;;;;;25.60;16.80;;;;;;;;;;3582869;39;20497;-75
2021/07/01 10:23:23;;;;;;;20.77;16.70;;;;;;;;;;3587500;39;20843;-75
2021/07/01 10:25:53;;;;;;;25.20;15.53;;;;;;;;;;3590934;39;20767;-75
2021/07/01 10:28:20;;;;;;;24.87;17.50;;;;;;;;;;3591333;39;20418;-75
2021/07/01 10:31:01;;;;;;;24.20;15.10;;;;;;;;;;3581233;39;20466;-75
2021/07/01 10:33:29;;;;;;;18.60;14.40;;;;;;;;;;3580693;39;20580;-75
2021/07/01 10:36:02;;;;;;;17.47;12.70;;;;;;;;;;3591840;39;20404;-75
2021/07/01 10:38:40;;;;;;;17.20;13.13;;;;;;;;;;3581517;39;20411;-75
2021/07/01 10:41:06;;;;;;;22.47;13.63;;;;;;;;;;3590784;39;20675;-76
2021/07/01 10:43:43;;;;;;;16.67;13.53;;;;;;;;;;3581690;39;20455;-75
2021/07/01 10:46:10;;;;;;;20.30;14.47;;;;;;;;;;3591716;39;20491;-75
2021/07/01 10:48:36;;;;;;;16.50;13.23;;;;;;;;;;3587737;39;20395;-75
2021/07/01 10:51:10;;;;;;;17.50;13.60;;;;;;;;;;3587915;39;20458;-75
2021/07/01 10:53:45;;;;;;;17.63;12.27;;;;;;;;;;3582319;39;20527;-76
2021/07/01 10:56:18;;;;;;;19.70;13.37;;;;;;;;;;3579112;39;21121;-76
2021/07/01 10:58:44;;;;;;;16.10;12.50;;;;;;;;;;3592638;39;20906;-76
2021/07/01 11:01:21;;;;;;;19.43;12.20;;;;;;;;;;3589427;39;20506;-76
2021/07/01 11:03:48;;;;;;;21.83;12.37;;;;;;;;;;3579622;39;20497;-76
2021/07/01 11:06:17;;;;;;;16.73;13.83;;;;;;;;;;3571244;40;20423;-76
2021/07/01 11:08:43;;;;;;;20.67;15.07;;;;;;;;;;3579783;39;20389;-75
2021/07/01 11:11:22;;;;;;;22.50;15.60;;;;;;;;;;3580128;39;21239;-76
2021/07/01 11:14:00;;;;;;;21.93;14.07;;;;;;;;;;3569270;40;20460;-76
2021/07/01 11:16:52;;;;;;;22.40;13.63;;;;;;;;;;3580014;39;20420;-76
2021/07/01 11:19:21;;;;;;;18.70;13.30;;;;;;;;;;3569211;40;20937;-76
2021/07/01 11:21:51;;;;;;;16.73;13.63;;;;;;;;;;3569510;39;20401;-76
2021/07/01 11:24:19;;;;;;;20.53;15.00;;;;;;;;;;3582501;39;20401;-76
2021/07/01 11:26:48;;;;;;;24.00;14.37;;;;;;;;;;3582362;39;20440;-76
2021/07/01 11:29:15;;;;;;;21.57;15.27;;;;;;;;;;3571162;40;20389;-76
2021/07/01 11:31:42;;;;;;;20.63;14.50;;;;;;;;;;3580470;39;20465;-76
2021/07/01 11:34:09;;;;;;;18.20;13.00;;;;;;;;;;3571830;39;20490;-76
2021/07/01 11:36:36;;;;;;;18.00;14.37;;;;;;;;;;3578620;39;20397;-76
2021/07/01 11:39:12;;;;;;;21.90;12.07;;;;;;;;;;3571951;40;20397;-76
2021/07/01 11:41:40;;;;;;;19.43;12.87;;;;;;;;;;3570183;40;20760;-76
2021/07/01 11:44:08;;;;;;;15.57;11.30;;;;;;;;;;3568733;40;20723;-76
2021/07/01 11:46:34;;;;;;;15.40;10.93;;;;;;;;;;3558893;40;20447;-76
2021/07/01 11:49:04;;;;;;;14.67;11.47;;;;;;;;;;3582010;40;20805;-76
2021/07/01 11:51:31;;;;;;;13.03;9.77;;;;;;;;;;3581199;40;20805;-75
2021/07/01 11:54:00;;;;;;;12.37;9.67;;;;;;;;;;3572304;40;20396;-75
2021/07/01 11:56:27;;;;;;;14.30;10.03;;;;;;;;;;3580396;39;20457;-76
2021/07/01 11:58:54;;;;;;;15.17;10.70;;;;;;;;;;3577341;39;20376;-76
2021/07/01 12:01:23;;;;;;;15.93;11.00;;;;;;;;;;3578710;39;20401;-76
2021/07/01 12:03:50;;;;;;;16.93;12.00;;;;;;;;;;3569239;39;20850;-76
2021/07/01 12:06:39;;;;;;;18.30;12.10;;;;;;;;;;3569460;39;20707;-76
2021/07/01 12:09:06;;;;;;;20.90;11.93;;;;;;;;;;3571565;40;20405;-75
2021/07/01 12:11:32;;;;;;;14.23;10.90;;;;;;;;;;3579854;39;20768;-76
2021/07/01 12:13:58;;;;;;;18.83;12.03;;;;;;;;;;3571372;39;20400;-76
2021/07/01 12:16:39;;;;;;;16.53;11.10;;;;;;;;;;3562131;40;20425;-75
2021/07/01 12:19:05;;;;;;;16.00;11.17;;;;;;;;;;3580581;40;20408;-76
2021/07/01 12:21:32;;;;;;;13.40;10.40;;;;;;;;;;3572447;40;20408;-75
2021/07/01 12:24:24;;;;;;;16.33;11.43;;;;;;;;;;3581572;39;20412;-75
2021/07/01 12:26:50;;;;;;;14.83;11.20;;;;;;;;;;3577924;39;20380;-75
2021/07/01 12:29:21;;;;;;;12.43;11.13;;;;;;;;;;3579859;39;20518;-75
2021/07/01 12:31:47;;;;;;;13.50;10.83;;;;;;;;;;3579485;39;21663;-76
2021/07/01 12:34:26;;;;;;;13.10;11.27;;;;;;;;;;3579995;40;20427;-76
2021/07/01 12:37:05;;;;;;;13.03;10.10;;;;;;;;;;3570783;40;20419;-76
2021/07/01 12:39:39;;;;;;;13.67;9.60;;;;;;;;;;3571023;40;20759;-76
2021/07/01 12:42:05;;;;;;;9.23;8.27;;;;;;;;;;3571383;40;20401;-76
2021/07/01 12:44:32;;;;;;;12.77;9.33;;;;;;;;;;3580334;40;20528;-76
2021/07/01 12:47:02;;;;;;;9.67;7.10;;;;;;;;;;3572417;40;20452;-76
2021/07/01 12:49:33;;;;;;;8.73;7.13;;;;;;;;;;3573761;40;20404;-76
2021/07/01 12:52:00;;;;;;;14.60;8.47;;;;;;;;;;3573276;39;21122;-75
2021/07/01 12:54:30;;;;;;;9.73;7.83;;;;;;;;;;3581019;39;20440;-77
2021/07/01 12:57:00;;;;;;;10.53;8.87;;;;;;;;;;3582917;39;20408;-77
2021/07/01 12:59:30;;;;;;;11.53;9.57;;;;;;;;;;3583183;40;20478;-76
2021/07/01 13:02:05;;;;;;;11.50;8.70;;;;;;;;;;3571021;40;20444;-76
2021/07/01 13:04:32;;;;;;;12.20;8.87;;;;;;;;;;3582233;39;20415;-76
2021/07/01 13:06:59;;;;;;;12.57;9.60;;;;;;;;;;3589933;39;20428;-77
2021/07/01 13:09:31;;;;;;;11.50;9.63;;;;;;;;;;3591603;39;20419;-76
2021/07/01 13:11:58;;;;;;;12.00;10.03;;;;;;;;;;3592957;39;20399;-76
2021/07/01 13:14:26;;;;;;;11.10;9.50;;;;;;;;;;3579807;39;20420;-76
2021/07/01 13:17:09;;;;;;;11.23;10.03;;;;;;;;;;3590197;39;20476;-76
2021/07/01 13:19:39;;;;;;;11.93;10.47;;;;;;;;;;3574813;39;20434;-76
2021/07/01 13:22:18;;;;;;;12.70;11.40;;;;;;;;;;3574441;39;20764;-76
2021/07/01 13:24:50;;;;;;;15.97;11.47;;;;;;;;;;3593017;39;20411;-76
2021/07/01 13:27:28;;;;;;;14.17;12.00;;;;;;;;;;3592716;39;20434;-76
2021/07/01 13:29:54;;;;;;;14.70;9.57;;;;;;;;;;3591398;39;20515;-76
2021/07/01 13:32:23;;;;;;;12.20;10.00;;;;;;;;;;3591290;39;20390;-76
2021/07/01 13:34:50;;;;;;;12.10;10.67;;;;;;;;;;3591098;39;20451;-75
2021/07/01 13:37:20;;;;;;;13.20;9.93;;;;;;;;;;3592832;39;20456;-75
2021/07/01 13:39:46;;;;;;;10.70;9.40;;;;;;;;;;3575232;39;20449;-75
2021/07/01 13:42:31;;;;;;;10.27;8.30;;;;;;;;;;3591868;39;20393;-75
2021/07/01 13:45:01;;;;;;;9.30;8.40;;;;;;;;;;3580795;39;20855;-74
2021/07/01 13:47:28;;;;;;;13.40;8.70;;;;;;;;;;3572987;39;20931;-75
2021/07/01 13:49:55;;;;;;;10.30;8.40;;;;;;;;;;3592298;39;20438;-75
2021/07/01 13:52:21;;;;;;;12.87;10.70;;;;;;;;;;3589520;39;20434;-76
2021/07/01 13:54:48;;;;;;;18.07;9.97;;;;;;;;;;3589632;39;20412;-77
2021/07/01 13:57:24;;;;;;;12.77;9.50;;;;;;;;;;3580948;39;20440;-76
2021/07/01 13:59:57;;;;;;;11.80;10.47;;;;;;;;;;3592787;39;20395;-75
2021/07/01 14:02:24;;;;;;;13.87;9.33;;;;;;;;;;3574120;39;20549;-76
2021/07/01 14:04:50;;;;;;;12.13;9.77;;;;;;;;;;3579004;39;20429;-77
2021/07/01 14:07:27;;;;;;;12.00;9.53;;;;;;;;;;3564577;40;20433;-75
2021/07/01 14:10:05;;;;;;;16.13;11.87;;;;;;;;;;3581437;39;20424;-76
2021/07/01 14:12:31;;;;;;;11.53;9.57;;;;;;;;;;3570995;40;20436;-77
2021/07/01 14:14:57;;;;;;;13.03;10.90;;;;;;;;;;3582994;39;20417;-76
2021/07/01 14:17:23;;;;;;;17.57;10.70;;;;;;;;;;3572364;40;20465;-77
2021/07/01 14:19:50;;;;;;;20.47;10.43;;;;;;;;;;3583236;39;20397;-76
2021/07/01 14:22:16;;;;;;;18.03;13.10;;;;;;;;;;3572122;40;20401;-76
2021/07/01 14:24:43;;;;;;;14.83;11.13;;;;;;;;;;3570204;40;20414;-76
2021/07/01 14:27:09;;;;;;;13.47;10.60;;;;;;;;;;3572721;40;20763;-75
2021/07/01 14:29:43;;;;;;;15.30;10.63;;;;;;;;;;3581818;40;20400;-76
2021/07/01 14:32:09;;;;;;;15.13;12.07;;;;;;;;;;3579836;40;20807;-76